Time;durP1;ratioP1;P1;durP2;ratioP2;P2;SDS_P1;SDS_P2;PMS_P1;PMS_P2;Temp;Humidity;BMP_temperature;BMP_pressure;BME280_temperature;BME280_humidity;BME280_pressure;Samples;Min_cycle;Max_cycle;Signal;HPM_P1;HPM_P2
2023/06/08 00:01:44;;;;;;;17.05;4.70;;;12.50;99.90;;;;;;5011943;28;20385;-67
2023/06/08 00:04:12;;;;;;;22.08;5.00;;;12.50;99.90;;;;;;5011962;28;20053;-67
2023/06/08 00:06:40;;;;;;;16.02;5.00;;;12.60;99.90;;;;;;5010131;28;20048;-67
2023/06/08 00:09:06;;;;;;;16.27;5.80;;;12.50;99.90;;;;;;5044888;28;20383;-67
2023/06/08 00:11:32;;;;;;;11.63;4.53;;;12.60;99.90;;;;;;5012366;28;20033;-67
2023/06/08 00:13:59;;;;;;;20.48;5.45;;;12.50;99.90;;;;;;5043751;28;20040;-67
2023/06/08 00:16:25;;;;;;;17.38;4.68;;;12.60;99.90;;;;;;5043047;28;20064;-67
2023/06/08 00:18:56;;;;;;;14.13;4.25;;;12.50;99.90;;;;;;4990561;28;20068;-67
2023/06/08 00:21:26;;;;;;;15.88;4.82;;;12.50;99.90;;;;;;4994458;28;20582;-67
2023/06/08 00:23:52;;;;;;;13.57;4.53;;;12.50;99.90;;;;;;5043486;28;20173;-67
2023/06/08 00:26:18;;;;;;;16.08;4.70;;;12.50;99.90;;;;;;5019329;28;20041;-67
2023/06/08 00:28:47;;;;;;;15.70;5.53;;;12.40;99.90;;;;;;5026482;28;20399;-67
2023/06/08 00:31:13;;;;;;;13.65;5.10;;;12.50;99.90;;;;;;5011266;28;20670;-67
2023/06/08 00:33:39;;;;;;;14.43;5.85;;;12.50;99.90;;;;;;5010166;28;20045;-67
2023/06/08 00:36:05;;;;;;;18.25;5.53;;;12.50;99.90;;;;;;5012175;28;20380;-67
2023/06/08 00:38:31;;;;;;;19.20;5.07;;;12.50;99.90;;;;;;5029128;28;20106;-67
2023/06/08 00:40:57;;;;;;;17.63;4.60;;;12.50;99.90;;;;;;5011690;28;20112;-67
2023/06/08 00:43:22;;;;;;;17.85;5.00;;;12.50;99.90;;;;;;5009816;28;20543;-67
2023/06/08 00:45:48;;;;;;;15.38;4.65;;;12.50;99.90;;;;;;5010805;28;20060;-66
2023/06/08 00:48:15;;;;;;;14.88;4.95;;;12.50;99.90;;;;;;5009835;28;20243;-67
2023/06/08 00:50:43;;;;;;;16.65;5.70;;;12.40;99.90;;;;;;5011261;28;20363;-67
2023/06/08 00:53:09;;;;;;;21.90;6.65;;;12.40;99.90;;;;;;5010856;28;20045;-66
2023/06/08 00:55:35;;;;;;;14.13;6.18;;;12.40;99.90;;;;;;5012318;28;20062;-66
2023/06/08 00:58:01;;;;;;;18.38;6.78;;;12.40;99.90;;;;;;4996134;28;20683;-66
2023/06/08 01:00:28;;;;;;;16.33;6.60;;;12.40;99.90;;;;;;5043135;28;20090;-66
2023/06/08 01:02:55;;;;;;;17.85;6.65;;;12.40;99.90;;;;;;5010684;28;20056;-66
2023/06/08 01:05:22;;;;;;;13.90;6.03;;;12.40;99.90;;;;;;5045612;28;20550;-65
2023/06/08 01:07:48;;;;;;;17.40;5.20;;;12.40;99.90;;;;;;5018409;28;20562;-66
2023/06/08 01:10:14;;;;;;;13.80;5.65;;;12.40;99.90;;;;;;5031078;28;20053;-66
2023/06/08 01:12:57;;;;;;;18.60;5.63;;;12.40;99.90;;;;;;5017118;28;20036;-65
2023/06/08 01:15:31;;;;;;;16.20;5.77;;;12.40;99.90;;;;;;4997690;28;20041;-64
2023/06/08 01:18:04;;;;;;;14.32;5.93;;;12.30;99.90;;;;;;5050097;28;20470;-64
2023/06/08 01:20:42;;;;;;;18.08;5.82;;;12.30;99.90;;;;;;5015073;28;20048;-64
2023/06/08 01:23:54;;;;;;;15.60;6.13;;;12.30;99.90;;;;;;5048286;28;20827;-66
2023/06/08 01:26:20;;;;;;;16.98;5.80;;;12.30;99.90;;;;;;5004051;28;20548;-65
2023/06/08 01:28:50;;;;;;;14.85;6.50;;;12.40;99.90;;;;;;5016398;28;20056;-65
2023/06/08 01:31:16;;;;;;;15.68;5.90;;;12.40;99.90;;;;;;4999253;28;20073;-65
2023/06/08 01:33:43;;;;;;;17.17;5.65;;;12.30;99.90;;;;;;5030799;28;20758;-66
2023/06/08 01:36:47;;;;;;;12.70;5.13;;;12.30;99.90;;;;;;5016478;28;20045;-65
2023/06/08 01:39:55;;;;;;;12.55;5.30;;;12.30;99.90;;;;;;4999319;28;20447;-65
2023/06/08 01:42:23;;;;;;;14.90;6.13;;;12.40;99.90;;;;;;5015611;28;20566;-65
2023/06/08 01:45:10;;;;;;;22.33;7.35;;;12.30;99.90;;;;;;5017021;28;20544;-65
2023/06/08 01:47:45;;;;;;;11.68;6.10;;;12.30;99.90;;;;;;5047729;28;20392;-65
2023/06/08 01:50:11;;;;;;;15.90;5.18;;;12.30;99.90;;;;;;5047156;28;20037;-65
2023/06/08 01:52:41;;;;;;;15.40;6.07;;;12.30;99.90;;;;;;5025330;28;20383;-65
2023/06/08 01:55:21;;;;;;;19.40;5.90;;;12.30;99.90;;;;;;5014299;28;20033;-65
2023/06/08 01:57:47;;;;;;;15.77;6.30;;;12.30;99.90;;;;;;5014484;28;20041;-65
2023/06/08 02:00:16;;;;;;;16.38;4.88;;;12.30;99.90;;;;;;5013437;28;20297;-65
2023/06/08 02:02:42;;;;;;;17.40;4.65;;;12.40;99.90;;;;;;5015661;28;20115;-65
2023/06/08 02:05:10;;;;;;;14.35;4.38;;;12.40;99.90;;;;;;5015441;28;20046;-65
2023/06/08 02:07:40;;;;;;;15.50;5.15;;;12.30;99.90;;;;;;5048227;28;20124;-65
2023/06/08 02:10:07;;;;;;;12.63;5.05;;;12.40;99.90;;;;;;5041230;28;20272;-65
2023/06/08 02:12:33;;;;;;;15.57;5.28;;;12.40;99.90;;;;;;5016002;28;20048;-65
2023/06/08 02:14:59;;;;;;;15.52;5.65;;;12.30;99.90;;;;;;5015322;28;20037;-65
2023/06/08 02:17:29;;;;;;;17.95;5.20;;;12.30;99.90;;;;;;5045176;28;20132;-65
2023/06/08 02:19:55;;;;;;;18.23;5.75;;;12.30;99.90;;;;;;5046496;28;20499;-65
2023/06/08 02:22:20;;;;;;;17.65;5.55;;;12.30;99.90;;;;;;5007919;28;20048;-64
2023/06/08 02:24:48;;;;;;;18.48;6.03;;;12.30;99.90;;;;;;5031881;28;20444;-64
2023/06/08 02:27:14;;;;;;;15.85;6.00;;;12.30;99.90;;;;;;5047971;28;20045;-65
2023/06/08 02:29:40;;;;;;;21.20;6.78;;;12.30;99.90;;;;;;5012855;28;20285;-65
2023/06/08 02:32:07;;;;;;;22.75;6.38;;;12.30;99.90;;;;;;4998880;28;20535;-65
2023/06/08 02:34:33;;;;;;;19.90;5.53;;;12.20;99.90;;;;;;5000719;28;20042;-65
2023/06/08 02:36:59;;;;;;;17.80;5.47;;;12.20;99.90;;;;;;5047152;28;20203;-65
2023/06/08 02:39:24;;;;;;;16.65;5.47;;;12.20;99.90;;;;;;5013834;28;20042;-65
2023/06/08 02:41:50;;;;;;;16.83;5.78;;;12.20;99.90;;;;;;5030421;28;20307;-65
2023/06/08 02:44:15;;;;;;;19.52;5.88;;;12.20;99.90;;;;;;5028903;28;20140;-65
2023/06/08 02:46:42;;;;;;;17.88;5.20;;;12.20;99.90;;;;;;5047567;28;20124;-65
2023/06/08 02:49:07;;;;;;;16.33;5.90;;;12.30;99.90;;;;;;5014225;28;20057;-65
2023/06/08 02:51:33;;;;;;;15.73;5.40;;;12.20;99.90;;;;;;5013629;28;20037;-65
2023/06/08 02:53:59;;;;;;;16.98;5.72;;;12.30;99.90;;;;;;5045091;28;20045;-65
2023/06/08 02:56:26;;;;;;;18.02;5.43;;;12.30;99.90;;;;;;5012154;28;20587;-65
2023/06/08 02:58:52;;;;;;;18.30;4.78;;;12.20;99.90;;;;;;5012450;28;20324;-65
2023/06/08 03:01:18;;;;;;;18.40;5.00;;;12.30;99.90;;;;;;5046664;28;20617;-65
2023/06/08 03:03:45;;;;;;;18.48;5.47;;;12.30;99.90;;;;;;5016787;28;20057;-65
2023/06/08 03:06:12;;;;;;;19.30;5.47;;;12.20;99.90;;;;;;5045307;28;20232;-65
2023/06/08 03:08:39;;;;;;;16.95;4.88;;;12.20;99.90;;;;;;5045279;28;20059;-66
2023/06/08 03:11:05;;;;;;;17.42;5.22;;;12.20;99.90;;;;;;5013659;28;20111;-65
2023/06/08 03:13:30;;;;;;;21.20;4.97;;;12.20;99.90;;;;;;5016369;28;20048;-65
2023/06/08 03:15:56;;;;;;;16.98;5.15;;;12.20;99.90;;;;;;4998738;28;20052;-65
2023/06/08 03:18:22;;;;;;;17.75;5.35;;;12.10;99.90;;;;;;5045113;28;20095;-65
2023/06/08 03:20:51;;;;;;;17.92;5.50;;;12.20;99.90;;;;;;5014657;28;20052;-65
2023/06/08 03:23:19;;;;;;;15.90;5.47;;;12.20;99.90;;;;;;5045707;28;20288;-65
2023/06/08 03:25:49;;;;;;;16.13;5.35;;;12.20;99.90;;;;;;5013168;28;20053;-65
2023/06/08 03:28:16;;;;;;;19.23;6.38;;;12.10;99.90;;;;;;5027450;28;20311;-66
2023/06/08 03:30:42;;;;;;;15.45;5.22;;;12.10;99.90;;;;;;5030060;28;20052;-65
2023/06/08 03:33:07;;;;;;;13.20;5.07;;;12.10;99.90;;;;;;5028026;28;20045;-65
2023/06/08 03:35:33;;;;;;;14.77;4.80;;;12.10;99.90;;;;;;5032008;28;20178;-65
2023/06/08 03:37:59;;;;;;;18.27;5.05;;;12.10;99.90;;;;;;5005810;28;20374;-65
2023/06/08 03:40:25;;;;;;;20.25;6.25;;;12.10;99.90;;;;;;5029738;28;20083;-65
2023/06/08 03:42:51;;;;;;;14.82;5.32;;;12.10;99.90;;;;;;5045057;28;20052;-65
2023/06/08 03:45:17;;;;;;;16.63;4.95;;;12.10;99.90;;;;;;5013667;28;20049;-66
2023/06/08 03:47:43;;;;;;;17.42;5.10;;;12.10;99.90;;;;;;5012040;28;20049;-65
2023/06/08 03:50:11;;;;;;;16.13;4.82;;;12.10;99.90;;;;;;5010573;28;20300;-66
2023/06/08 03:52:38;;;;;;;16.35;5.03;;;12.10;99.90;;;;;;5044520;28;20045;-65
2023/06/08 03:55:06;;;;;;;18.55;5.65;;;12.20;99.90;;;;;;5044400;28;20041;-65
2023/06/08 03:57:32;;;;;;;15.60;5.50;;;12.20;99.90;;;;;;5029651;28;20200;-65
2023/06/08 03:59:57;;;;;;;13.75;5.47;;;12.20;99.90;;;;;;5029581;28;20045;-65
2023/06/08 04:02:23;;;;;;;16.27;5.55;;;12.20;99.90;;;;;;4996243;28;20056;-65
2023/06/08 04:04:49;;;;;;;17.40;4.50;;;12.20;99.90;;;;;;5029250;28;20184;-64
2023/06/08 04:07:16;;;;;;;18.67;5.55;;;12.30;99.90;;;;;;4996235;28;20041;-64
2023/06/08 04:09:42;;;;;;;16.60;5.15;;;12.20;99.90;;;;;;4996290;28;20541;-65
2023/06/08 04:12:08;;;;;;;17.35;6.35;;;12.20;99.90;;;;;;5012988;28;20356;-66
2023/06/08 04:14:34;;;;;;;17.13;5.32;;;12.30;99.90;;;;;;5011888;28;20041;-65
2023/06/08 04:17:00;;;;;;;15.55;5.47;;;12.30;99.90;;;;;;5051168;28;20053;-66
2023/06/08 04:19:26;;;;;;;18.00;5.55;;;12.30;99.90;;;;;;5013752;28;20033;-65
2023/06/08 04:21:56;;;;;;;22.17;6.95;;;12.30;99.90;;;;;;5019582;28;20045;-65
2023/06/08 04:24:25;;;;;;;21.30;6.85;;;12.30;99.90;;;;;;5021434;28;20411;-67
2023/06/08 04:26:50;;;;;;;16.30;5.90;;;12.40;99.90;;;;;;5017801;28;20033;-65
2023/06/08 04:29:17;;;;;;;19.50;5.85;;;12.30;99.90;;;;;;5019786;28;20090;-65
2023/06/08 04:31:43;;;;;;;21.88;6.57;;;12.40;99.90;;;;;;5014838;28;20072;-65
2023/06/08 04:34:10;;;;;;;17.70;5.28;;;12.40;99.90;;;;;;5036003;28;20504;-68
2023/06/08 04:36:55;;;;;;;19.30;6.00;;;12.50;99.90;;;;;;5020309;28;20045;-65
2023/06/08 04:39:21;;;;;;;17.38;5.80;;;12.50;99.90;;;;;;5052543;28;20053;-66
2023/06/08 04:41:47;;;;;;;20.02;6.13;;;12.40;99.90;;;;;;5051335;28;20128;-65
2023/06/08 04:44:13;;;;;;;20.52;6.40;;;12.40;99.90;;;;;;5005612;28;20044;-65
2023/06/08 04:46:42;;;;;;;16.75;5.40;;;12.50;99.90;;;;;;5037394;28;20039;-66
2023/06/08 04:49:09;;;;;;;16.52;5.68;;;12.50;99.90;;;;;;5004919;28;20467;-65
2023/06/08 04:51:39;;;;;;;16.63;5.43;;;12.40;99.90;;;;;;5020250;28;20041;-66
2023/06/08 04:54:13;;;;;;;17.77;6.30;;;12.50;99.90;;;;;;5037509;28;20053;-65
2023/06/08 04:56:42;;;;;;;16.00;5.90;;;12.50;99.90;;;;;;5053662;28;20325;-65
2023/06/08 04:59:09;;;;;;;18.65;6.40;;;12.40;99.90;;;;;;5056995;28;20153;-65
2023/06/08 05:01:35;;;;;;;16.05;6.32;;;12.50;99.90;;;;;;5018333;28;20081;-66
2023/06/08 05:04:01;;;;;;;13.57;4.95;;;12.50;99.90;;;;;;5003537;28;20144;-66
2023/06/08 05:06:27;;;;;;;16.17;5.30;;;12.50;99.90;;;;;;5035588;28;20041;-65
2023/06/08 05:08:53;;;;;;;16.05;4.82;;;12.50;99.90;;;;;;5021882;28;20041;-66
2023/06/08 05:11:18;;;;;;;14.07;4.75;;;12.60;99.90;;;;;;5003061;28;20053;-65
2023/06/08 05:13:44;;;;;;;17.10;5.47;;;12.70;99.90;;;;;;5004407;28;20127;-66
2023/06/08 05:16:10;;;;;;;17.73;4.60;;;12.70;99.90;;;;;;5038520;28;20053;-65
2023/06/08 05:18:36;;;;;;;14.15;4.57;;;12.70;99.90;;;;;;5005413;28;20045;-66
2023/06/08 05:21:02;;;;;;;15.80;4.90;;;12.80;99.90;;;;;;5003502;28;20182;-65
2023/06/08 05:23:28;;;;;;;16.02;5.30;;;12.90;99.80;;;;;;5021037;28;20547;-65
2023/06/08 05:25:53;;;;;;;15.77;4.45;;;12.90;99.70;;;;;;5003984;28;20042;-66
2023/06/08 05:28:19;;;;;;;11.98;4.00;;;12.90;92.70;;;;;;5034947;28;20045;-66
2023/06/08 05:30:45;;;;;;;16.85;4.70;;;13.00;82.10;;;;;;5051431;28;20702;-67
2023/06/08 05:33:11;;;;;;;19.85;4.80;;;13.00;41.20;;;;;;5052833;28;20042;-66
2023/06/08 05:35:36;;;;;;;19.60;5.07;;;13.10;71.00;;;;;;5003067;28;20459;-66
2023/06/08 05:38:02;;;;;;;15.02;4.47;;;13.20;46.50;;;;;;5036744;28;20124;-66
2023/06/08 05:40:28;;;;;;;14.57;4.75;;;13.20;30.10;;;;;;5036738;28;20080;-67
2023/06/08 05:42:54;;;;;;;18.35;5.10;;;13.20;1.00;;;;;;5022581;28;20037;-66
2023/06/08 05:45:20;;;;;;;16.75;4.82;;;13.30;1.00;;;;;;5019581;28;20407;-67
2023/06/08 05:47:46;;;;;;;18.73;4.53;;;13.40;1.00;;;;;;5014227;28;20048;-66
2023/06/08 05:50:11;;;;;;;17.77;4.05;;;13.40;1.00;;;;;;5021215;28;20050;-65
2023/06/08 05:52:37;;;;;;;15.32;4.30;;;13.60;1.00;;;;;;5037156;28;20041;-67
2023/06/08 05:55:04;;;;;;;16.25;4.10;;;13.70;1.00;;;;;;5056495;28;20760;-66
2023/06/08 05:57:30;;;;;;;18.13;4.32;;;13.80;1.00;;;;;;5038887;28;20095;-67
2023/06/08 05:59:56;;;;;;;13.13;3.63;;;13.80;1.00;;;;;;5021975;28;20411;-66
2023/06/08 06:02:22;;;;;;;13.95;3.70;;;13.90;1.00;;;;;;5039344;28;20281;-66
2023/06/08 06:04:47;;;;;;;16.70;4.10;;;14.00;1.00;;;;;;5006684;28;21459;-66
2023/06/08 06:07:13;;;;;;;17.02;4.07;;;14.00;1.00;;;;;;5037496;28;20085;-67
2023/06/08 06:09:39;;;;;;;11.77;3.97;;;14.10;1.00;;;;;;5006992;28;20430;-66
2023/06/08 06:12:07;;;;;;;15.18;4.07;;;14.30;1.00;;;;;;5031666;28;20041;-66
2023/06/08 06:14:40;;;;;;;10.50;3.72;;;14.20;99.90;;;;;;5039106;28;20056;-66
2023/06/08 06:17:07;;;;;;;17.00;4.28;;;14.20;99.90;;;;;;5056524;28;20193;-67
2023/06/08 06:19:36;;;;;;;16.02;3.88;;;14.20;99.90;;;;;;5056241;28;20810;-66
2023/06/08 06:22:06;;;;;;;16.45;4.10;;;14.20;99.90;;;;;;5020553;28;20612;-66
2023/06/08 06:24:32;;;;;;;14.68;3.40;;;14.50;1.00;;;;;;5047665;28;20040;-67
2023/06/08 06:26:58;;;;;;;16.05;3.88;;;14.90;99.90;;;;;;4997704;28;20038;-67
2023/06/08 06:29:24;;;;;;;15.93;3.80;;;15.10;99.90;;;;;;5015447;28;20036;-67
2023/06/08 06:31:50;;;;;;;14.38;4.32;;;15.20;99.90;;;;;;5011245;28;20048;-67
2023/06/08 06:34:17;;;;;;;12.35;3.50;;;15.50;99.90;;;;;;5030253;28;20045;-66
2023/06/08 06:36:42;;;;;;;14.02;3.25;;;15.60;99.90;;;;;;5046594;28;20478;-67
2023/06/08 06:39:09;;;;;;;13.40;3.45;;;15.50;99.90;;;;;;5030104;28;20056;-67
2023/06/08 06:41:34;;;;;;;15.02;3.75;;;15.30;99.90;;;;;;5030441;28;20104;-67
2023/06/08 06:44:00;;;;;;;11.48;3.03;;;15.30;99.90;;;;;;5030695;28;20198;-67
2023/06/08 06:46:26;;;;;;;13.48;3.92;;;15.50;99.90;;;;;;5013747;28;20352;-67
2023/06/08 06:48:53;;;;;;;16.27;4.13;;;15.60;99.90;;;;;;5046871;28;20076;-67
2023/06/08 06:51:19;;;;;;;9.95;2.90;;;15.80;99.90;;;;;;5014740;28;20045;-67
2023/06/08 06:53:44;;;;;;;14.07;3.38;;;15.80;99.90;;;;;;5029931;28;20041;-67
2023/06/08 06:56:10;;;;;;;11.38;3.20;;;16.00;99.90;;;;;;5013495;28;20037;-67
2023/06/08 06:58:36;;;;;;;12.18;3.60;;;16.20;99.90;;;;;;5014475;28;20606;-67
2023/06/08 07:01:01;;;;;;;14.55;3.90;;;16.40;99.90;;;;;;5015825;28;21856;-67
2023/06/08 07:03:27;;;;;;;11.43;3.65;;;16.40;99.90;;;;;;5013079;28;20057;-67
2023/06/08 07:05:57;;;;;;;12.07;3.38;;;16.30;99.90;;;;;;5028053;28;20045;-67
2023/06/08 07:08:26;;;;;;;10.52;3.25;;;16.50;99.90;;;;;;5027921;28;20695;-66
2023/06/08 07:10:51;;;;;;;12.38;3.80;;;16.70;99.90;;;;;;5048128;28;20056;-66
2023/06/08 07:13:17;;;;;;;9.82;3.28;;;16.60;99.90;;;;;;4998364;28;20403;-66
2023/06/08 07:15:43;;;;;;;13.60;3.35;;;16.60;99.90;;;;;;5013092;28;20192;-66
2023/06/08 07:18:09;;;;;;;14.90;2.97;;;16.60;99.90;;;;;;5012775;28;20052;-67
2023/06/08 07:20:35;;;;;;;13.30;3.42;;;16.60;99.90;;;;;;5045554;28;20132;-67
2023/06/08 07:23:00;;;;;;;12.13;2.95;;;16.30;99.90;;;;;;5011499;28;20403;-66
2023/06/08 07:25:26;;;;;;;12.13;3.38;;;16.30;99.90;;;;;;4996740;28;20312;-66
2023/06/08 07:27:51;;;;;;;14.90;4.00;;;16.10;99.90;;;;;;5013267;28;20044;-66
2023/06/08 07:30:17;;;;;;;14.23;3.22;;;16.10;99.90;;;;;;5013341;28;20045;-67
2023/06/08 07:32:43;;;;;;;14.77;3.38;;;16.20;99.90;;;;;;5014041;28;20044;-67
2023/06/08 07:35:09;;;;;;;11.20;3.20;;;16.20;99.90;;;;;;5013401;28;20048;-66
2023/06/08 07:37:35;;;;;;;11.75;3.13;;;16.10;99.90;;;;;;5014372;28;20164;-67
2023/06/08 07:40:05;;;;;;;13.88;3.13;;;16.30;99.90;;;;;;5015198;28;20055;-67
2023/06/08 07:42:31;;;;;;;12.00;3.15;;;16.50;99.90;;;;;;5031516;28;20041;-66
2023/06/08 07:44:56;;;;;;;14.15;3.35;;;16.60;99.90;;;;;;5012958;28;20728;-66
2023/06/08 07:47:22;;;;;;;12.35;3.25;;;17.00;99.90;;;;;;5012584;28;20325;-66
2023/06/08 07:49:48;;;;;;;16.02;3.67;;;17.10;99.90;;;;;;5010927;28;20727;-66
2023/06/08 07:52:13;;;;;;;13.52;3.72;;;17.20;99.90;;;;;;5013041;28;20056;-66
2023/06/08 07:54:39;;;;;;;13.43;3.40;;;17.40;99.90;;;;;;5028881;28;20349;-66
2023/06/08 07:57:05;;;;;;;12.05;3.28;;;17.50;99.90;;;;;;5008153;28;20126;-66
2023/06/08 07:59:31;;;;;;;14.27;3.10;;;17.60;99.90;;;;;;4991352;28;20052;-66
2023/06/08 08:02:00;;;;;;;11.27;2.83;;;17.70;99.90;;;;;;4999863;28;20425;-67
2023/06/08 08:04:26;;;;;;;12.63;3.40;;;17.80;99.90;;;;;;5013342;28;20072;-66
2023/06/08 08:06:51;;;;;;;14.18;3.20;;;17.90;99.90;;;;;;5047405;28;20514;-66
2023/06/08 08:09:17;;;;;;;10.57;3.03;;;17.80;99.90;;;;;;5011238;28;20045;-66
2023/06/08 08:11:42;;;;;;;10.10;2.55;;;17.90;99.90;;;;;;4995773;28;20128;-66
2023/06/08 08:14:10;;;;;;;9.13;3.22;;;17.90;99.90;;;;;;5007918;28;20250;-65
2023/06/08 08:16:39;;;;;;;10.20;2.75;;;18.00;99.90;;;;;;5043905;28;20037;-66
2023/06/08 08:19:05;;;;;;;15.23;3.30;;;18.10;99.90;;;;;;5012137;28;20045;-66
2023/06/08 08:21:31;;;;;;;11.48;3.72;;;18.10;99.90;;;;;;5028607;28;20044;-67
2023/06/08 08:23:57;;;;;;;11.25;3.08;;;18.50;99.90;;;;;;4995778;28;20119;-66
2023/06/08 08:26:23;;;;;;;13.43;3.42;;;18.60;98.40;;;;;;5013205;28;20344;-68
2023/06/08 08:28:48;;;;;;;10.00;2.58;;;18.60;99.90;;;;;;5045316;28;20567;-66
2023/06/08 08:31:14;;;;;;;9.90;2.70;;;18.70;99.90;;;;;;5011726;28;20041;-66
2023/06/08 08:33:40;;;;;;;12.30;3.03;;;18.80;99.70;;;;;;5012270;28;20147;-66
2023/06/08 08:36:06;;;;;;;11.02;2.75;;;18.90;54.00;;;;;;5012790;28;20056;-66
2023/06/08 08:38:31;;;;;;;10.00;2.75;;;18.80;5.00;;;;;;5010700;28;20124;-65
2023/06/08 08:41:05;;;;;;;8.20;2.25;;;18.70;43.10;;;;;;5013123;28;20673;-66
2023/06/08 08:43:56;;;;;;;9.02;2.30;;;18.70;51.60;;;;;;4996259;28;20446;-66
2023/06/08 08:46:23;;;;;;;8.55;2.38;;;19.00;1.00;;;;;;5044794;28;20128;-66
2023/06/08 08:48:58;;;;;;;10.38;2.90;;;18.90;1.00;;;;;;5048723;28;20304;-66
2023/06/08 08:51:25;;;;;;;12.00;2.60;;;19.10;8.10;;;;;;5051312;28;20067;-66
2023/06/08 08:53:51;;;;;;;10.77;2.53;;;19.20;1.00;;;;;;5017898;28;20164;-66
2023/06/08 08:56:19;;;;;;;9.23;2.38;;;19.20;1.00;;;;;;5050869;28;20099;-65
2023/06/08 08:58:47;;;;;;;9.73;2.58;;;19.30;1.00;;;;;;5027528;28;20609;-66
2023/06/08 09:01:14;;;;;;;10.95;2.45;;;19.40;1.00;;;;;;5034778;28;20427;-65
2023/06/08 09:03:39;;;;;;;9.45;2.40;;;19.50;1.00;;;;;;5017022;28;20057;-66
2023/06/08 09:06:06;;;;;;;9.55;2.30;;;19.60;1.00;;;;;;5018074;28;20404;-66
2023/06/08 09:08:32;;;;;;;10.68;2.47;;;19.40;1.00;;;;;;5034237;28;20044;-65
2023/06/08 09:11:06;;;;;;;10.27;2.83;;;19.60;1.00;;;;;;5017273;28;20246;-65
2023/06/08 09:13:33;;;;;;;10.88;2.30;;;19.60;1.00;;;;;;5028011;28;20123;-65
2023/06/08 09:16:17;;;;;;;8.63;2.33;;;19.70;1.00;;;;;;5034285;28;20577;-65
2023/06/08 09:18:47;;;;;;;9.13;2.92;;;19.80;1.00;;;;;;5037223;28;20535;-64
2023/06/08 09:21:29;;;;;;;9.45;2.28;;;19.70;1.00;;;;;;5018032;28;20041;-66
2023/06/08 09:24:11;;;;;;;12.50;3.15;;;19.80;1.00;;;;;;5034358;28;20032;-65
2023/06/08 09:26:38;;;;;;;9.23;2.90;;;19.80;1.00;;;;;;5051394;28;20076;-65
2023/06/08 09:29:04;;;;;;;8.88;2.53;;;19.70;1.00;;;;;;5056108;28;20447;-65
2023/06/08 09:31:31;;;;;;;9.88;2.53;;;20.10;1.00;;;;;;5055049;28;20045;-65
2023/06/08 09:34:09;;;;;;;8.65;2.15;;;20.00;1.00;;;;;;5019701;28;20048;-66
2023/06/08 09:36:39;;;;;;;8.15;2.65;;;20.00;1.00;;;;;;5054760;28;20369;-65
2023/06/08 09:39:07;;;;;;;7.28;2.40;;;20.20;1.00;;;;;;5023401;28;20041;-66
2023/06/08 09:41:33;;;;;;;11.88;2.53;;;20.00;99.90;;;;;;5038311;28;20369;-66
2023/06/08 09:44:00;;;;;;;9.13;2.20;;;20.10;1.00;;;;;;5054943;28;20041;-66
2023/06/08 09:46:39;;;;;;;9.02;2.28;;;20.10;99.90;;;;;;5015226;28;20034;-65
2023/06/08 09:49:06;;;;;;;9.75;2.25;;;19.70;99.90;;;;;;5022388;28;20048;-66
2023/06/08 09:51:36;;;;;;;7.43;2.10;;;19.80;1.00;;;;;;5004173;28;20751;-67
2023/06/08 09:54:04;;;;;;;9.95;2.53;;;20.10;1.00;;;;;;5054839;28;20049;-67
2023/06/08 09:56:30;;;;;;;6.82;1.90;;;20.20;99.90;;;;;;5056327;28;20045;-66
2023/06/08 09:59:08;;;;;;;8.45;2.30;;;20.30;99.90;;;;;;5022925;28;20051;-67
2023/06/08 10:01:40;;;;;;;6.97;1.77;;;20.10;99.90;;;;;;5024025;28;20555;-66
2023/06/08 10:04:28;;;;;;;9.02;2.22;;;20.30;99.90;;;;;;5054328;28;20045;-67
2023/06/08 10:07:06;;;;;;;6.10;1.90;;;20.30;99.90;;;;;;5023758;28;20440;-66
2023/06/08 10:09:37;;;;;;;7.88;2.30;;;20.20;99.90;;;;;;5030715;28;20125;-66
2023/06/08 10:12:03;;;;;;;8.98;2.33;;;20.00;99.90;;;;;;5020889;28;20240;-66
2023/06/08 10:14:31;;;;;;;9.13;2.30;;;20.30;99.90;;;;;;5021656;28;20548;-66
2023/06/08 10:16:57;;;;;;;10.55;2.67;;;20.50;99.90;;;;;;5021111;28;20456;-66
2023/06/08 10:19:24;;;;;;;9.45;2.40;;;20.40;99.90;;;;;;5053607;28;20463;-66
2023/06/08 10:21:52;;;;;;;8.05;1.90;;;20.20;99.90;;;;;;5004722;28;20333;-66
2023/06/08 10:24:20;;;;;;;10.45;2.20;;;20.40;99.90;;;;;;5020623;28;20042;-67
2023/06/08 10:26:48;;;;;;;8.82;2.45;;;20.50;99.90;;;;;;5053923;28;20116;-67
2023/06/08 10:29:14;;;;;;;7.50;2.03;;;20.40;99.90;;;;;;5005009;28;20040;-67
2023/06/08 10:31:41;;;;;;;8.20;1.98;;;20.40;99.90;;;;;;5054701;28;20098;-67
2023/06/08 10:34:09;;;;;;;8.43;1.88;;;20.50;99.90;;;;;;5038625;28;20048;-68
2023/06/08 10:36:39;;;;;;;8.95;1.80;;;20.50;99.90;;;;;;5004703;28;20130;-67
2023/06/08 10:39:14;;;;;;;7.25;2.10;;;20.60;99.90;;;;;;5019761;28;20037;-67
2023/06/08 10:41:59;;;;;;;6.28;1.80;;;20.40;99.90;;;;;;5053614;28;20116;-67
2023/06/08 10:44:32;;;;;;;7.82;1.70;;;20.90;99.90;;;;;;5021036;28;20757;-67
2023/06/08 10:47:05;;;;;;;7.97;1.83;;;20.70;99.90;;;;;;5036337;28;20033;-67
2023/06/08 10:49:34;;;;;;;;;;;20.90;99.90;;;;;;5020668;28;20045;-67
2023/06/08 10:52:03;;;;;;;7.90;2.08;;;20.90;99.90;;;;;;5052839;28;19921;-67
2023/06/08 10:54:30;;;;;;;7.03;1.77;;;20.70;99.90;;;;;;5020500;28;20322;-67
2023/06/08 10:56:58;;;;;;;8.43;1.98;;;20.90;99.90;;;;;;5020939;28;20123;-67
2023/06/08 10:59:37;;;;;;;8.32;2.20;;;20.70;99.90;;;;;;5038224;28;20037;-67
2023/06/08 11:02:04;;;;;;;10.90;2.20;;;20.70;99.90;;;;;;5053086;28;20025;-66
2023/06/08 11:04:31;;;;;;;8.13;1.80;;;21.00;99.90;;;;;;5053746;28;20146;-66
2023/06/08 11:07:01;;;;;;;6.80;1.45;;;21.10;99.90;;;;;;5039110;28;20053;-67
2023/06/08 11:09:36;;;;;;;8.60;1.77;;;21.00;99.90;;;;;;5020402;28;20052;-67
2023/06/08 11:12:03;;;;;;;7.32;1.90;;;21.10;99.90;;;;;;5037765;28;20248;-67
2023/06/08 11:14:29;;;;;;;7.95;1.83;;;21.00;99.90;;;;;;5053707;28;20132;-67
2023/06/08 11:16:56;;;;;;;7.82;1.73;;;21.30;99.90;;;;;;5051331;28;20037;-66
2023/06/08 11:19:23;;;;;;;8.10;1.95;;;21.40;99.90;;;;;;5054386;28;20045;-67
2023/06/08 11:21:53;;;;;;;7.90;1.85;;;21.30;99.90;;;;;;5035901;28;20037;-68
2023/06/08 11:24:25;;;;;;;9.25;2.35;;;21.50;99.90;;;;;;5053818;28;20466;-67
2023/06/08 11:27:00;;;;;;;8.88;1.90;;;21.40;99.90;;;;;;5005696;28;20196;-67
2023/06/08 11:29:26;;;;;;;9.52;1.70;;;21.30;99.90;;;;;;5056315;28;20037;-66
2023/06/08 11:31:53;;;;;;;6.93;1.88;;;21.50;99.90;;;;;;5005662;28;20124;-67
2023/06/08 11:34:19;;;;;;;5.85;1.80;;;21.50;99.90;;;;;;5004174;28;20605;-67
2023/06/08 11:36:46;;;;;;;9.52;2.00;;;21.30;99.90;;;;;;5013059;28;20740;-67
2023/06/08 11:39:11;;;;;;;5.85;1.92;;;21.20;99.90;;;;;;5020165;28;20037;-67
2023/06/08 11:41:46;;;;;;;5.97;1.40;;;21.20;99.90;;;;;;5020048;28;20479;-67
2023/06/08 11:44:14;;;;;;;8.63;1.73;;;21.30;99.90;;;;;;5019117;28;20120;-66
2023/06/08 11:46:40;;;;;;;9.93;1.83;;;21.20;99.90;;;;;;4999455;28;20044;-67
2023/06/08 11:49:08;;;;;;;5.43;1.48;;;21.10;99.90;;;;;;5034316;28;20041;-67
2023/06/08 11:51:43;;;;;;;10.05;1.58;;;21.30;99.90;;;;;;5008043;28;20056;-67
2023/06/08 11:54:08;;;;;;;9.43;1.92;;;21.30;99.90;;;;;;5033715;28;20105;-68
2023/06/08 11:56:35;;;;;;;7.93;1.90;;;21.40;99.90;;;;;;5013398;28;20049;-68
2023/06/08 11:59:03;;;;;;;7.93;1.63;;;21.50;99.90;;;;;;5000395;28;20058;-68
2023/06/08 12:01:30;;;;;;;7.80;1.80;;;21.70;99.90;;;;;;5016018;28;20507;-68
2023/06/08 12:03:56;;;;;;;11.13;2.08;;;21.70;99.90;;;;;;5028107;28;20070;-67
2023/06/08 12:06:26;;;;;;;7.65;1.98;;;21.60;99.90;;;;;;5044590;28;20136;-67
2023/06/08 12:08:55;;;;;;;5.97;1.25;;;21.80;99.90;;;;;;5046548;28;20118;-68
2023/06/08 12:11:21;;;;;;;6.18;1.40;;;21.70;99.90;;;;;;5046285;28;20046;-68
2023/06/08 12:13:47;;;;;;;6.60;1.58;;;21.60;99.90;;;;;;5030115;28;20052;-68
2023/06/08 12:16:13;;;;;;;9.65;1.48;;;21.50;99.90;;;;;;5027844;28;20288;-68
2023/06/08 12:18:42;;;;;;;7.28;1.45;;;21.30;99.90;;;;;;4996174;28;20329;-67
2023/06/08 12:21:14;;;;;;;7.45;1.83;;;21.30;99.90;;;;;;5031094;28;20510;-67
2023/06/08 12:23:40;;;;;;;8.07;1.42;;;21.40;99.90;;;;;;5012328;28;20450;-67
2023/06/08 12:26:06;;;;;;;10.43;1.52;;;21.50;99.90;;;;;;5029726;28;20455;-67
2023/06/08 12:28:32;;;;;;;6.57;1.27;;;21.40;99.90;;;;;;5016249;28;20105;-66
2023/06/08 12:31:00;;;;;;;7.45;1.77;;;21.30;99.90;;;;;;4995866;28;20041;-67
2023/06/08 12:33:31;;;;;;;9.02;1.65;;;21.10;99.90;;;;;;5047462;28;20441;-65
2023/06/08 12:35:57;;;;;;;8.93;1.30;;;21.30;99.90;;;;;;5035254;28;21106;-67
2023/06/08 12:38:23;;;;;;;7.70;1.80;;;21.20;99.90;;;;;;5020702;28;20044;-66
2023/06/08 12:40:53;;;;;;;9.10;1.40;;;21.20;99.90;;;;;;5051725;28;20292;-68
2023/06/08 12:43:20;;;;;;;7.82;1.45;;;21.10;99.90;;;;;;5055565;28;20710;-66
2023/06/08 12:45:46;;;;;;;6.28;1.40;;;21.30;99.90;;;;;;5023436;28;21293;-66